Time;durP1;ratioP1;P1;durP2;ratioP2;P2;SDS_P1;SDS_P2;PMS_P1;PMS_P2;Temp;Humidity;BMP_temperature;BMP_pressure;BME280_temperature;BME280_humidity;BME280_pressure;Samples;Min_cycle;Max_cycle;Signal;HPM_P1;HPM_P2
2023/10/20 00:00:41;;;;;;;1999.90;999.90;;;11.60;99.90;;;;;;5054423;28;20491;-73
2023/10/20 00:03:08;;;;;;;1999.90;999.90;;;11.60;99.90;;;;;;5048733;28;20748;-73
2023/10/20 00:05:34;;;;;;;1999.90;999.90;;;11.60;99.90;;;;;;5050022;28;20059;-73
2023/10/20 00:08:00;;;;;;;1999.90;999.90;;;11.60;99.90;;;;;;5048505;28;20033;-73
2023/10/20 00:10:26;;;;;;;1999.90;999.90;;;11.60;99.90;;;;;;5048042;28;20483;-73
2023/10/20 00:12:52;;;;;;;1999.90;999.90;;;11.60;99.90;;;;;;5050484;28;20021;-72
2023/10/20 00:15:18;;;;;;;1999.90;999.90;;;11.60;99.90;;;;;;5047977;28;20033;-73
2023/10/20 00:17:43;;;;;;;1999.90;999.90;;;11.50;99.90;;;;;;5047805;28;20049;-73
2023/10/20 00:20:09;;;;;;;1999.90;999.90;;;11.50;99.90;;;;;;5048046;28;20025;-73
2023/10/20 00:22:35;;;;;;;1999.90;999.90;;;11.50;99.90;;;;;;5052571;28;20033;-74
2023/10/20 00:25:01;;;;;;;1999.90;999.90;;;11.50;99.90;;;;;;5051216;28;20040;-72
2023/10/20 00:27:28;;;;;;;1999.90;999.90;;;11.60;99.90;;;;;;5049415;28;20071;-73
2023/10/20 00:29:54;;;;;;;1999.90;999.90;;;11.70;99.90;;;;;;5058808;28;20441;-73
2023/10/20 00:32:19;;;;;;;1999.90;999.90;;;11.70;99.90;;;;;;5048177;28;20068;-73
2023/10/20 00:34:45;;;;;;;1999.90;999.90;;;11.70;99.90;;;;;;5055485;28;20728;-74
2023/10/20 00:37:11;;;;;;;1999.90;999.90;;;11.60;99.90;;;;;;5058689;28;20050;-72
2023/10/20 00:39:37;;;;;;;1999.90;999.90;;;11.60;99.90;;;;;;5064979;28;20029;-73
2023/10/20 00:42:03;;;;;;;1999.90;999.90;;;11.50;99.90;;;;;;5068197;28;20033;-73
2023/10/20 00:44:28;;;;;;;1999.90;999.90;;;11.50;99.90;;;;;;5063724;28;20167;-72
2023/10/20 00:46:55;;;;;;;1999.90;999.90;;;11.50;99.90;;;;;;5067273;28;20075;-73
2023/10/20 00:49:37;;;;;;;1999.90;999.90;;;11.50;99.90;;;;;;5060951;28;20033;-73
2023/10/20 00:52:03;;;;;;;1999.90;999.90;;;11.60;99.90;;;;;;5056886;28;20044;-73
2023/10/20 00:54:30;;;;;;;1999.90;999.90;;;11.50;99.90;;;;;;5057061;28;20060;-73
2023/10/20 00:56:56;;;;;;;1999.90;999.90;;;11.60;99.90;;;;;;5051532;28;20064;-73
2023/10/20 00:59:22;;;;;;;1999.90;999.90;;;11.50;99.90;;;;;;5055580;28;20064;-73
2023/10/20 01:01:48;;;;;;;1999.90;999.90;;;11.50;99.90;;;;;;5049741;28;20065;-73
2023/10/20 01:04:13;;;;;;;1999.90;999.90;;;11.50;99.90;;;;;;5052576;28;20040;-73
2023/10/20 01:06:39;;;;;;;1999.90;999.90;;;11.40;99.90;;;;;;5054560;28;20025;-73
2023/10/20 01:09:09;;;;;;;1999.90;999.90;;;11.40;99.90;;;;;;5056305;28;20030;-73
2023/10/20 01:11:35;;;;;;;;;;;11.40;99.90;;;;;;5056733;28;20039;-72
2023/10/20 01:14:01;;;;;;;1999.90;999.90;;;11.50;99.90;;;;;;5045697;28;19916;-73
2023/10/20 01:16:27;;;;;;;1999.90;999.90;;;11.50;99.90;;;;;;5053700;28;20084;-73
2023/10/20 01:18:53;;;;;;;1999.90;999.90;;;11.50;99.90;;;;;;5054821;28;20107;-73
2023/10/20 01:21:19;;;;;;;1999.90;999.90;;;11.50;99.90;;;;;;5051067;28;20037;-74
2023/10/20 01:23:45;;;;;;;1999.90;999.90;;;11.40;99.90;;;;;;5054703;28;20037;-73
2023/10/20 01:26:10;;;;;;;1999.90;999.90;;;11.30;99.90;;;;;;5058232;28;20125;-73
2023/10/20 01:28:36;;;;;;;1999.90;999.90;;;11.20;99.90;;;;;;5053598;28;20029;-73
2023/10/20 01:31:03;;;;;;;1999.90;999.90;;;11.20;99.90;;;;;;5050625;28;20086;-73
2023/10/20 01:33:29;;;;;;;1999.90;999.90;;;11.20;99.90;;;;;;5051669;28;20049;-73
2023/10/20 01:35:54;;;;;;;1999.90;999.90;;;11.10;99.90;;;;;;5057070;28;20032;-74
2023/10/20 01:38:20;;;;;;;1999.90;999.90;;;11.10;99.90;;;;;;5055274;28;20025;-74
2023/10/20 01:40:46;;;;;;;1999.90;999.90;;;11.10;99.90;;;;;;5050017;28;20479;-73
2023/10/20 01:43:12;;;;;;;1999.90;999.90;;;11.10;99.90;;;;;;5055535;28;20036;-74
2023/10/20 01:45:37;;;;;;;1999.90;999.90;;;11.10;99.90;;;;;;5056815;28;20074;-74
2023/10/20 01:48:03;;;;;;;1999.90;999.90;;;11.10;99.90;;;;;;5046393;28;20033;-73
2023/10/20 01:50:29;;;;;;;1999.90;999.90;;;11.10;99.90;;;;;;5049259;28;20048;-73
2023/10/20 01:52:54;;;;;;;1999.90;999.90;;;11.10;99.90;;;;;;5047881;28;20029;-73
2023/10/20 01:55:20;;;;;;;1999.90;999.90;;;11.10;99.90;;;;;;5052804;28;20033;-73
2023/10/20 01:57:46;;;;;;;1999.90;999.90;;;11.20;99.90;;;;;;5060052;28;20033;-72
2023/10/20 02:00:15;;;;;;;1999.90;999.90;;;11.10;99.90;;;;;;5055896;28;20120;-73
2023/10/20 02:02:41;;;;;;;1999.90;999.90;;;11.10;99.90;;;;;;5056133;28;20167;-72
2023/10/20 02:05:10;;;;;;;1999.90;999.90;;;11.10;99.90;;;;;;5049603;28;20037;-72
2023/10/20 02:07:36;;;;;;;1999.90;999.90;;;11.10;99.90;;;;;;5052392;28;20049;-73
2023/10/20 02:10:03;;;;;;;1999.90;999.90;;;11.10;99.90;;;;;;5053474;28;20064;-73
2023/10/20 02:12:29;;;;;;;1999.90;999.90;;;11.10;99.90;;;;;;5053901;28;20480;-73
2023/10/20 02:14:54;;;;;;;1999.90;999.90;;;11.20;99.90;;;;;;5049205;28;20043;-73
2023/10/20 02:17:20;;;;;;;1999.90;999.90;;;11.10;99.90;;;;;;5048847;28;20029;-73
2023/10/20 02:19:46;;;;;;;1999.90;999.90;;;11.10;99.90;;;;;;5052549;28;20044;-72
2023/10/20 02:22:12;;;;;;;1999.90;999.90;;;11.10;99.90;;;;;;5060624;28;20503;-73
2023/10/20 02:24:38;;;;;;;1999.90;999.90;;;11.10;99.90;;;;;;5054770;28;20475;-73
2023/10/20 02:27:03;;;;;;;1999.90;999.90;;;11.10;99.90;;;;;;5048428;28;20040;-73
2023/10/20 02:29:29;;;;;;;1999.90;999.90;;;11.10;99.90;;;;;;5054269;28;20171;-73
2023/10/20 02:31:55;;;;;;;1999.90;999.90;;;11.10;99.90;;;;;;5046031;28;20021;-73
2023/10/20 02:34:21;;;;;;;1999.90;999.90;;;11.10;99.90;;;;;;5047179;28;20036;-73
2023/10/20 02:36:50;;;;;;;1999.90;999.90;;;11.10;99.90;;;;;;5052685;28;20610;-73
2023/10/20 02:39:15;;;;;;;1999.90;999.90;;;11.10;99.90;;;;;;5051149;28;20033;-73
2023/10/20 02:41:41;;;;;;;1999.90;999.90;;;11.10;99.90;;;;;;5047941;28;20136;-73
2023/10/20 02:44:07;;;;;;;1999.90;999.90;;;11.10;99.90;;;;;;5052354;28;20037;-73
2023/10/20 02:46:33;;;;;;;1999.90;999.90;;;11.10;99.90;;;;;;5054154;28;20818;-73
2023/10/20 02:48:58;;;;;;;1999.90;999.90;;;11.10;99.90;;;;;;5056700;28;20052;-73
2023/10/20 02:51:24;;;;;;;1999.90;999.90;;;11.10;99.90;;;;;;5049650;28;20116;-73
2023/10/20 02:53:50;;;;;;;1999.90;999.90;;;11.10;99.90;;;;;;5051251;28;20025;-73
2023/10/20 02:56:18;;;;;;;1999.90;999.90;;;11.10;99.90;;;;;;5056396;28;20111;-74
2023/10/20 02:58:44;;;;;;;1999.90;999.90;;;11.10;99.90;;;;;;5049508;28;20651;-73
2023/10/20 03:01:15;;;;;;;1999.90;999.90;;;11.00;99.90;;;;;;5053040;28;20051;-73
2023/10/20 03:03:41;;;;;;;;;;;11.00;99.90;;;;;;5049317;28;20116;-72
2023/10/20 03:06:09;;;;;;;1999.90;999.90;;;11.00;99.90;;;;;;5051365;28;20343;-73
2023/10/20 03:08:36;;;;;;;1999.90;999.90;;;11.00;99.90;;;;;;5058188;28;20056;-72
2023/10/20 03:11:04;;;;;;;1999.90;999.90;;;11.00;99.90;;;;;;5049021;28;20044;-73
2023/10/20 03:13:29;;;;;;;1999.90;999.90;;;11.10;99.90;;;;;;5049294;28;20033;-73
2023/10/20 03:15:55;;;;;;;1999.90;999.90;;;11.10;99.90;;;;;;5044108;28;20030;-73
2023/10/20 03:18:21;;;;;;;1999.90;999.90;;;11.00;99.90;;;;;;5083249;28;20522;-72
2023/10/20 03:20:50;;;;;;;1999.90;999.90;;;11.00;99.90;;;;;;5044416;28;20044;-73
2023/10/20 03:23:18;;;;;;;1999.90;999.90;;;11.00;99.90;;;;;;5046603;28;20384;-73
2023/10/20 03:25:44;;;;;;;1999.90;999.90;;;11.00;99.90;;;;;;5047591;28;20033;-73
2023/10/20 03:28:09;;;;;;;1999.90;999.90;;;11.00;99.90;;;;;;5050365;28;20038;-73
2023/10/20 03:30:42;;;;;;;1999.90;999.90;;;11.10;99.90;;;;;;5048448;28;20120;-73
2023/10/20 03:33:08;;;;;;;1999.90;999.90;;;11.00;99.90;;;;;;5046816;28;20080;-73
2023/10/20 03:35:34;;;;;;;1999.90;999.90;;;11.00;99.90;;;;;;5055296;28;20033;-73
2023/10/20 03:38:00;;;;;;;1999.90;999.90;;;11.10;99.90;;;;;;5049642;28;20032;-72
2023/10/20 03:40:46;;;;;;;1999.90;999.90;;;11.00;99.90;;;;;;5053064;28;20498;-72
2023/10/20 03:43:11;;;;;;;1999.90;999.90;;;11.00;99.90;;;;;;5051001;28;20040;-73
2023/10/20 03:45:51;;;;;;;1999.90;999.90;;;11.00;99.90;;;;;;5050944;28;20135;-73
2023/10/20 03:48:19;;;;;;;1999.90;999.90;;;11.00;99.90;;;;;;5049835;28;20064;-73
2023/10/20 03:50:46;;;;;;;1999.90;999.90;;;11.00;99.90;;;;;;5049146;28;20079;-73
2023/10/20 03:53:18;;;;;;;1999.90;999.90;;;10.90;99.90;;;;;;5050270;28;20044;-73
2023/10/20 03:55:44;;;;;;;1999.90;999.90;;;10.90;99.90;;;;;;5052035;28;20076;-72
2023/10/20 03:58:11;;;;;;;1999.90;999.90;;;10.90;99.90;;;;;;5051402;28;20475;-73
2023/10/20 04:00:41;;;;;;;1999.90;999.90;;;10.90;99.90;;;;;;5051047;28;20037;-74
2023/10/20 04:03:08;;;;;;;;;;;10.90;99.90;;;;;;5054479;28;20032;-73
2023/10/20 04:05:33;;;;;;;1999.90;999.90;;;10.90;99.90;;;;;;5049997;28;20391;-73
2023/10/20 04:07:59;;;;;;;1999.90;999.90;;;10.90;99.90;;;;;;5053665;28;20039;-74
2023/10/20 04:10:25;;;;;;;1999.90;999.90;;;10.90;99.90;;;;;;5055545;28;20036;-73
2023/10/20 04:12:51;;;;;;;1999.90;999.90;;;10.80;99.90;;;;;;5046008;28;20027;-73
2023/10/20 04:15:19;;;;;;;1999.90;999.90;;;10.80;99.90;;;;;;5047280;28;20083;-72
2023/10/20 04:17:54;;;;;;;1999.90;999.90;;;10.90;99.90;;;;;;5047884;28;20043;-74
2023/10/20 04:20:21;;;;;;;1999.90;999.90;;;10.90;99.90;;;;;;5054995;28;20514;-73
2023/10/20 04:22:51;;;;;;;1999.90;999.90;;;10.90;99.90;;;;;;5056172;28;20027;-73
2023/10/20 04:25:23;;;;;;;1999.90;999.90;;;10.80;99.90;;;;;;5044652;28;20033;-73
2023/10/20 04:27:57;;;;;;;1999.90;999.90;;;10.80;99.90;;;;;;5045145;28;20033;-74
2023/10/20 04:54:45;;;;;;;1999.90;999.90;;;10.80;99.90;;;;;;5047248;28;20061;-75
2023/10/20 05:00:32;;;;;;;1999.90;999.90;;;10.90;99.90;;;;;;5047542;28;20028;-73
2023/10/20 05:07:57;;;;;;;1999.90;999.90;;;10.70;99.90;;;;;;5049594;28;20475;-78
2023/10/20 05:10:24;;;;;;;1999.90;999.90;;;10.70;99.90;;;;;;5047392;28;20045;-79
2023/10/20 05:12:50;;;;;;;1999.90;999.90;;;10.80;99.90;;;;;;5042485;28;20025;-79
2023/10/20 05:15:17;;;;;;;1999.90;999.90;;;10.70;99.90;;;;;;5047190;28;20059;-79
2023/10/20 05:17:43;;;;;;;1999.90;999.90;;;10.80;99.90;;;;;;5042668;28;20093;-81
2023/10/20 05:20:12;;;;;;;1999.90;999.90;;;10.70;99.90;;;;;;5044915;28;20120;-82
2023/10/20 05:22:39;;;;;;;1999.90;999.90;;;10.80;99.90;;;;;;5047783;28;20487;-80
2023/10/20 05:25:06;;;;;;;1999.90;999.90;;;10.80;99.90;;;;;;5050264;28;20047;-77
2023/10/20 05:27:32;;;;;;;1999.90;999.90;;;10.80;99.90;;;;;;5044116;28;20087;-82
2023/10/20 05:29:58;;;;;;;1999.90;999.90;;;10.70;99.90;;;;;;5049353;28;20096;-90
2023/10/20 05:32:24;;;;;;;1999.90;999.90;;;10.70;99.90;;;;;;5055194;28;20144;-85
2023/10/20 05:34:53;;;;;;;1999.90;999.90;;;10.70;99.90;;;;;;5050682;28;20154;-88
2023/10/20 05:37:21;;;;;;;1999.90;999.90;;;10.70;99.90;;;;;;5054091;28;20453;-87
2023/10/20 05:39:47;;;;;;;1999.90;999.90;;;10.60;99.90;;;;;;5049354;28;20068;-88
2023/10/20 05:42:13;;;;;;;1999.90;999.90;;;10.70;99.90;;;;;;5051360;28;20060;-91
2023/10/20 05:44:48;;;;;;;1999.90;999.90;;;10.60;99.90;;;;;;5050215;28;20067;-88
2023/10/20 05:47:14;;;;;;;1999.90;999.90;;;10.60;99.90;;;;;;5050973;28;20133;-89
2023/10/20 05:49:39;;;;;;;1999.90;999.90;;;10.60;99.90;;;;;;5053809;28;20091;-88
2023/10/20 05:52:05;;;;;;;1999.90;999.90;;;10.60;99.90;;;;;;5053003;28;20048;-88
2023/10/20 05:54:31;;;;;;;1999.90;999.90;;;10.60;99.90;;;;;;5056815;28;20037;-90
2023/10/20 05:56:57;;;;;;;1999.90;999.90;;;10.60;99.90;;;;;;5051695;28;20059;-87
2023/10/20 05:59:23;;;;;;;1999.90;999.90;;;10.60;99.90;;;;;;5053021;28;20040;-86
2023/10/20 06:01:49;;;;;;;1999.90;999.90;;;10.60;99.90;;;;;;5054298;28;20358;-89
2023/10/20 06:04:14;;;;;;;1999.90;999.90;;;10.60;99.90;;;;;;5051807;28;20029;-86
2023/10/20 06:06:40;;;;;;;1999.90;999.90;;;10.60;99.90;;;;;;5050478;28;20629;-88
2023/10/20 06:09:09;;;;;;;1999.90;999.90;;;10.60;99.90;;;;;;5054817;28;20482;-88
2023/10/20 06:11:38;;;;;;;1999.90;999.90;;;10.60;99.90;;;;;;5054455;28;20029;-88
2023/10/20 06:14:04;;;;;;;1999.90;999.90;;;10.60;99.90;;;;;;5048148;28;20805;-88
2023/10/20 06:16:30;;;;;;;1999.90;999.90;;;10.60;99.90;;;;;;5052960;28;20557;-88
2023/10/20 06:18:56;;;;;;;1999.90;999.90;;;10.60;99.90;;;;;;5056878;28;20036;-90
2023/10/20 06:21:22;;;;;;;1999.90;999.90;;;10.60;99.90;;;;;;5054508;28;20044;-87
2023/10/20 06:23:49;;;;;;;1999.90;999.90;;;10.60;99.90;;;;;;5057901;28;20037;-89
2023/10/20 06:26:15;;;;;;;1999.90;999.90;;;10.70;99.90;;;;;;5049791;28;20021;-87
2023/10/20 06:28:41;;;;;;;1999.90;999.90;;;10.70;99.90;;;;;;5054550;28;20659;-89
2023/10/20 06:34:10;;;;;;;1999.90;999.90;;;10.70;99.90;;;;;;5053506;28;20059;-88
2023/10/20 06:36:37;;;;;;;1999.90;999.90;;;10.70;99.90;;;;;;5054004;28;20067;-88
2023/10/20 06:39:03;;;;;;;1999.90;999.90;;;10.60;99.90;;;;;;5052241;28;20754;-87
2023/10/20 06:41:29;;;;;;;1999.90;999.90;;;10.50;99.90;;;;;;5055018;28;20028;-87
2023/10/20 06:43:56;;;;;;;1999.90;999.90;;;10.60;99.90;;;;;;5057482;28;20033;-87
2023/10/20 06:46:22;;;;;;;1999.90;999.90;;;10.60;99.90;;;;;;5053939;28;20306;-88
2023/10/20 06:48:48;;;;;;;1999.90;999.90;;;10.60;99.90;;;;;;5050798;28;20668;-86
2023/10/20 06:51:14;;;;;;;1999.90;999.90;;;10.60;99.90;;;;;;5053341;28;20033;-89
2023/10/20 06:53:39;;;;;;;1999.90;999.90;;;10.70;99.90;;;;;;5060645;28;20475;-88
2023/10/20 06:56:09;;;;;;;1999.90;999.90;;;10.80;99.90;;;;;;5060337;28;20187;-88
2023/10/20 06:58:34;;;;;;;1999.90;999.90;;;10.80;99.90;;;;;;5052405;28;20031;-88
2023/10/20 07:01:05;;;;;;;1999.90;999.90;;;10.90;99.90;;;;;;5055768;28;20269;-87
2023/10/20 07:03:32;;;;;;;1999.90;999.90;;;10.80;99.90;;;;;;5050139;28;20041;-88
2023/10/20 07:05:59;;;;;;;1999.90;999.90;;;10.70;99.90;;;;;;5055606;28;20049;-89
2023/10/20 07:08:25;;;;;;;1999.90;999.90;;;10.70;99.90;;;;;;5052009;28;20037;-88
2023/10/20 07:10:50;;;;;;;1999.90;999.90;;;10.80;99.90;;;;;;5052874;28;20033;-88
2023/10/20 07:13:17;;;;;;;1999.90;999.90;;;10.80;99.90;;;;;;5050095;28;20083;-88
2023/10/20 07:15:43;;;;;;;1999.90;999.90;;;10.80;99.90;;;;;;5050020;28;20123;-89
2023/10/20 07:18:11;;;;;;;1999.90;999.90;;;10.80;99.90;;;;;;5056253;28;20025;-89
2023/10/20 07:20:40;;;;;;;1999.90;999.90;;;10.90;99.90;;;;;;5057266;28;20144;-88
2023/10/20 07:23:06;;;;;;;1999.90;999.90;;;10.90;99.90;;;;;;5049646;28;20037;-88
2023/10/20 07:25:33;;;;;;;1999.90;999.90;;;10.80;99.90;;;;;;5048715;28;20025;-89
2023/10/20 07:27:58;;;;;;;1999.90;999.90;;;10.90;99.90;;;;;;5049085;28;20060;-88
2023/10/20 07:30:24;;;;;;;1999.90;999.90;;;11.00;99.90;;;;;;5055199;28;20049;-87
2023/10/20 07:32:51;;;;;;;1999.90;999.90;;;11.10;99.90;;;;;;5051149;28;20055;-90
2023/10/20 07:35:20;;;;;;;1999.90;999.90;;;11.10;99.90;;;;;;5050404;28;20518;-89
2023/10/20 07:37:46;;;;;;;1999.90;999.90;;;11.00;99.90;;;;;;5047075;28;20559;-88
2023/10/20 07:40:13;;;;;;;1999.90;999.90;;;11.00;99.90;;;;;;5050927;28;20048;-89
2023/10/20 07:42:39;;;;;;;1999.90;999.90;;;10.80;99.90;;;;;;5053468;28;20037;-88
2023/10/20 07:45:08;;;;;;;1999.90;999.90;;;10.90;99.90;;;;;;5054932;28;20483;-86
2023/10/20 07:47:34;;;;;;;1999.90;999.90;;;11.00;99.90;;;;;;5048959;28;20047;-88
2023/10/20 07:50:00;;;;;;;1999.90;999.90;;;11.00;99.90;;;;;;5048086;28;20037;-87
2023/10/20 07:52:26;;;;;;;1999.90;999.90;;;10.90;99.90;;;;;;5050640;28;20029;-88
2023/10/20 07:54:52;;;;;;;1999.90;999.90;;;11.00;99.90;;;;;;5051435;28;20156;-88
2023/10/20 07:57:20;;;;;;;1999.90;999.90;;;11.10;99.90;;;;;;5056329;28;20965;-88
2023/10/20 07:59:46;;;;;;;1999.90;999.90;;;11.20;99.80;;;;;;5038342;28;20160;-88
2023/10/20 08:02:12;;;;;;;1999.90;999.90;;;11.20;99.60;;;;;;5045032;28;20037;-88
2023/10/20 08:04:40;;;;;;;1999.90;999.90;;;11.40;99.10;;;;;;5050442;28;20025;-89
2023/10/20 08:07:06;;;;;;;1999.90;999.90;;;11.40;99.40;;;;;;5044755;28;20170;-90
2023/10/20 08:09:32;;;;;;;1999.90;999.90;;;11.50;99.40;;;;;;5049602;28;20115;-88
2023/10/20 08:11:59;;;;;;;1999.90;999.90;;;11.80;98.80;;;;;;5050046;28;20686;-86
2023/10/20 08:14:27;;;;;;;1999.90;999.90;;;11.80;98.20;;;;;;5048157;28;20033;-88
2023/10/20 08:16:53;;;;;;;1999.90;999.90;;;11.70;98.50;;;;;;5056070;28;20029;-87
2023/10/20 08:19:19;;;;;;;1999.90;999.90;;;11.70;98.70;;;;;;5053163;28;20033;-89
2023/10/20 08:21:45;;;;;;;1999.90;999.90;;;11.80;98.60;;;;;;5047987;28;20035;-88
2023/10/20 08:24:11;;;;;;;1999.90;999.90;;;11.90;98.00;;;;;;5045631;28;20029;-89
2023/10/20 08:26:37;;;;;;;1999.90;999.90;;;12.10;97.70;;;;;;5048344;28;20037;-87
2023/10/20 08:29:12;;;;;;;1999.90;999.90;;;12.20;97.80;;;;;;5045842;28;20036;-87
2023/10/20 08:31:39;;;;;;;1999.90;999.90;;;12.00;97.70;;;;;;5046682;28;20578;-87
2023/10/20 08:34:05;;;;;;;1999.90;999.90;;;12.20;97.60;;;;;;5050107;28;20178;-87
2023/10/20 08:36:31;;;;;;;1999.90;999.90;;;12.20;97.70;;;;;;5047355;28;20551;-88
2023/10/20 08:39:01;;;;;;;1999.90;999.90;;;12.10;97.20;;;;;;5043488;28;20550;-88
2023/10/20 08:41:27;;;;;;;1999.90;999.90;;;12.10;97.20;;;;;;5050441;28;20206;-86
2023/10/20 08:43:56;;;;;;;1999.90;999.90;;;12.30;97.60;;;;;;5051149;28;20119;-88
2023/10/20 08:46:24;;;;;;;1999.90;999.90;;;12.50;97.00;;;;;;5050974;28;20158;-88
2023/10/20 08:48:50;;;;;;;1999.90;999.90;;;12.50;96.40;;;;;;5048586;28;20121;-88
2023/10/20 08:51:17;;;;;;;1999.90;999.90;;;12.50;96.10;;;;;;5047634;28;20108;-88
2023/10/20 08:53:43;;;;;;;1999.90;999.90;;;12.60;96.40;;;;;;5050885;28;20045;-86
2023/10/20 08:56:11;;;;;;;1999.90;999.90;;;12.70;95.70;;;;;;5055360;28;20070;-88
2023/10/20 08:58:37;;;;;;;1999.90;999.90;;;12.50;95.80;;;;;;5047294;28;20048;-88
2023/10/20 09:01:05;;;;;;;1999.90;999.90;;;12.30;96.10;;;;;;5047629;28;20111;-88
2023/10/20 09:03:48;;;;;;;1999.90;999.90;;;12.20;96.60;;;;;;5053348;28;20045;-89
2023/10/20 09:06:14;;;;;;;1999.90;999.90;;;12.40;97.00;;;;;;5048740;28;20078;-87
2023/10/20 09:08:47;;;;;;;1999.90;999.90;;;12.30;97.50;;;;;;5051031;28;20028;-86
2023/10/20 09:11:13;;;;;;;1999.90;999.90;;;12.50;97.80;;;;;;5052006;28;20072;-89
2023/10/20 09:13:40;;;;;;;1999.90;999.90;;;12.90;97.20;;;;;;5048810;28;20029;-88
2023/10/20 09:16:11;;;;;;;1999.90;999.90;;;13.40;95.30;;;;;;5048220;28;20029;-86
2023/10/20 09:18:53;;;;;;;;;;;13.50;94.70;;;;;;5051168;28;20040;-87
2023/10/20 09:21:28;;;;;;;1999.90;999.90;;;13.40;94.40;;;;;;5052595;28;19916;-88
2023/10/20 09:23:57;;;;;;;1999.90;999.90;;;13.60;94.50;;;;;;5047704;28;20056;-89
2023/10/20 09:26:25;;;;;;;1999.90;999.90;;;13.70;95.10;;;;;;5054947;28;20471;-88
2023/10/20 09:28:53;;;;;;;1999.90;999.90;;;13.50;94.20;;;;;;5056325;28;20052;-88
2023/10/20 09:31:20;;;;;;;1999.90;999.90;;;13.40;94.90;;;;;;5059668;28;20112;-88
2023/10/20 09:33:46;;;;;;;1999.90;999.90;;;13.40;95.10;;;;;;5058577;28;20049;-87
2023/10/20 09:36:12;;;;;;;1999.90;999.90;;;13.60;95.30;;;;;;5052818;28;20078;-88
2023/10/20 09:38:39;;;;;;;1999.90;999.90;;;14.00;94.70;;;;;;5056717;28;20028;-89
2023/10/20 09:41:15;;;;;;;1999.90;999.90;;;14.30;93.70;;;;;;5055611;28;20059;-88
2023/10/20 09:43:53;;;;;;;1999.90;999.90;;;14.20;93.50;;;;;;5050663;28;20044;-87
2023/10/20 09:46:49;;;;;;;1999.90;999.90;;;14.00;94.20;;;;;;5049262;28;20081;-88
2023/10/20 09:49:19;;;;;;;1999.90;999.90;;;13.80;93.90;;;;;;5050931;28;20032;-88
2023/10/20 09:51:46;;;;;;;1999.90;999.90;;;13.70;94.50;;;;;;5055556;28;20037;-87
2023/10/20 09:54:24;;;;;;;1999.90;999.90;;;13.60;93.90;;;;;;5056557;28;20115;-89
2023/10/20 09:56:51;;;;;;;1999.90;999.90;;;13.80;94.40;;;;;;5055080;28;20036;-87
2023/10/20 09:59:20;;;;;;;1999.90;999.90;;;13.90;94.20;;;;;;5053562;28;20445;-87
2023/10/20 10:01:46;;;;;;;1999.90;999.90;;;14.20;93.60;;;;;;5052477;28;20116;-86
2023/10/20 10:04:12;;;;;;;1999.90;999.90;;;14.10;93.40;;;;;;5058409;28;20035;-88
2023/10/20 10:06:38;;;;;;;1999.90;999.90;;;14.20;93.40;;;;;;5053821;28;20021;-86
2023/10/20 10:09:05;;;;;;;1999.90;999.90;;;14.20;93.10;;;;;;5053948;28;20052;-87
2023/10/20 10:11:42;;;;;;;1999.90;999.90;;;14.10;92.90;;;;;;5054320;28;20024;-89
2023/10/20 10:14:17;;;;;;;1999.90;999.90;;;14.20;93.60;;;;;;5054841;28;20056;-87
2023/10/20 10:16:56;;;;;;;1999.90;999.90;;;14.60;92.70;;;;;;5056643;28;20112;-88
2023/10/20 10:19:26;;;;;;;1999.90;999.90;;;15.20;92.30;;;;;;5055250;28;20036;-88
2023/10/20 10:21:56;;;;;;;1999.90;999.90;;;15.60;91.30;;;;;;5052174;28;20037;-88
2023/10/20 10:24:23;;;;;;;1999.90;999.90;;;15.50;90.20;;;;;;5050661;28;20113;-88
2023/10/20 10:26:57;;;;;;;1999.90;999.90;;;15.40;90.80;;;;;;5051325;28;20033;-88
2023/10/20 10:29:49;;;;;;;1999.90;999.90;;;15.30;91.50;;;;;;5053113;28;20025;-88
2023/10/20 10:32:19;;;;;;;1999.90;999.90;;;15.00;91.00;;;;;;5055996;28;20098;-88
2023/10/20 10:34:49;;;;;;;1999.90;999.90;;;14.90;91.30;;;;;;5051220;28;20043;-86
2023/10/20 10:37:35;;;;;;;1999.90;999.90;;;14.80;91.90;;;;;;5050657;28;20105;-88
2023/10/20 10:40:14;;;;;;;1999.90;999.90;;;15.10;91.70;;;;;;5057398;28;20037;-86
2023/10/20 10:42:43;;;;;;;1999.90;999.90;;;15.60;90.50;;;;;;5051341;28;20028;-89
2023/10/20 10:45:21;;;;;;;1999.90;999.90;;;15.60;90.00;;;;;;5054912;28;20032;-89
2023/10/20 10:47:47;;;;;;;1999.90;999.90;;;15.70;89.90;;;;;;5054641;28;20083;-88
2023/10/20 10:50:15;;;;;;;1999.90;999.90;;;15.70;89.60;;;;;;5057626;28;20024;-86
2023/10/20 10:52:40;;;;;;;1999.90;999.90;;;15.80;89.70;;;;;;5061493;28;20040;-87
2023/10/20 10:55:09;;;;;;;1999.90;999.90;;;15.90;89.50;;;;;;5054582;28;20032;-86
2023/10/20 10:57:35;;;;;;;1999.90;999.90;;;15.80;87.90;;;;;;5051984;28;20041;-86
2023/10/20 11:00:03;;;;;;;1999.90;999.90;;;15.90;87.50;;;;;;5051481;28;20041;-84
2023/10/20 11:02:29;;;;;;;1999.90;999.90;;;16.10;87.30;;;;;;5058087;28;20126;-85
2023/10/20 11:04:55;;;;;;;1999.90;999.90;;;16.10;87.30;;;;;;5058741;28;20044;-86
2023/10/20 11:07:22;;;;;;;1999.90;999.90;;;16.00;87.60;;;;;;5053160;28;20025;-87
2023/10/20 11:09:48;;;;;;;1999.90;999.90;;;16.00;87.80;;;;;;5049995;28;20028;-87
2023/10/20 11:12:14;;;;;;;1999.90;999.90;;;16.10;88.80;;;;;;5050179;28;20028;-87
2023/10/20 11:14:39;;;;;;;1999.90;999.90;;;16.30;87.50;;;;;;5059520;28;20407;-87
2023/10/20 11:17:05;;;;;;;1999.90;999.90;;;16.50;87.90;;;;;;5048517;28;20033;-87
2023/10/20 11:19:31;;;;;;;1999.90;999.90;;;16.50;85.80;;;;;;5055165;28;20552;-88
2023/10/20 11:21:57;;;;;;;1999.90;999.90;;;16.50;85.20;;;;;;5056081;28;20040;-89
2023/10/20 11:24:34;;;;;;;1999.90;999.90;;;16.70;84.40;;;;;;5052390;28;20082;-87
2023/10/20 11:27:05;;;;;;;1999.90;999.90;;;17.00;83.50;;;;;;5046122;28;20040;-88
2023/10/20 11:29:32;;;;;;;1999.90;999.90;;;17.10;83.90;;;;;;5051737;28;20067;-85
2023/10/20 11:32:00;;;;;;;1999.90;999.90;;;17.10;82.50;;;;;;5048798;28;20098;-88
2023/10/20 11:34:27;;;;;;;1999.90;999.90;;;17.40;82.10;;;;;;5042625;28;20107;-87
2023/10/20 11:36:53;;;;;;;1999.90;999.90;;;17.30;80.80;;;;;;5052177;28;20481;-85
2023/10/20 11:39:24;;;;;;;1999.90;999.90;;;17.50;81.40;;;;;;5051303;28;20512;-87
2023/10/20 11:41:51;;;;;;;1999.90;999.90;;;17.10;80.00;;;;;;5055717;28;20041;-87
2023/10/20 11:44:16;;;;;;;1999.90;999.90;;;17.30;81.60;;;;;;5052035;28;20054;-86
2023/10/20 11:46:43;;;;;;;1999.90;999.90;;;17.30;80.90;;;;;;5045388;28;20029;-85
2023/10/20 11:49:10;;;;;;;1999.90;999.90;;;17.20;79.00;;;;;;5051250;28;20482;-87
2023/10/20 11:51:37;;;;;;;1999.90;999.90;;;17.00;80.80;;;;;;5060227;28;20079;-85
2023/10/20 11:54:03;;;;;;;1999.90;999.90;;;16.80;80.60;;;;;;5055719;28;20380;-88
2023/10/20 11:56:29;;;;;;;1999.90;999.90;;;17.00;82.20;;;;;;5051662;28;20604;-87
2023/10/20 11:58:55;;;;;;;1999.90;999.90;;;17.20;80.50;;;;;;5049556;28;20032;-87
2023/10/20 12:01:20;;;;;;;1999.90;999.90;;;17.00;79.10;;;;;;5050167;28;20035;-88
2023/10/20 12:03:46;;;;;;;1999.90;999.90;;;17.10;81.00;;;;;;5053955;28;20036;-87
2023/10/20 12:06:12;;;;;;;1999.90;999.90;;;16.80;81.40;;;;;;5048967;28;20078;-87
2023/10/20 12:08:37;;;;;;;1999.90;999.90;;;16.70;82.10;;;;;;5049365;28;20478;-87
2023/10/20 12:11:03;;;;;;;1999.90;999.90;;;16.70;81.90;;;;;;5049331;28;20033;-87
2023/10/20 12:13:29;;;;;;;1999.90;999.90;;;16.30;82.50;;;;;;5056751;28;20036;-87
2023/10/20 12:15:55;;;;;;;1999.90;999.90;;;16.40;83.00;;;;;;5049615;28;20116;-88
2023/10/20 12:18:20;;;;;;;1999.90;999.90;;;16.30;83.20;;;;;;5047243;28;20060;-86
2023/10/20 12:20:47;;;;;;;1999.90;999.90;;;16.20;83.50;;;;;;5047557;28;20064;-88
2023/10/20 12:23:13;;;;;;;1999.90;999.90;;;16.00;84.80;;;;;;5049520;28;20162;-85
2023/10/20 12:25:38;;;;;;;1999.90;999.90;;;16.10;84.70;;;;;;5060254;28;20074;-86
2023/10/20 12:28:06;;;;;;;1999.90;999.90;;;16.00;88.30;;;;;;5042255;28;20033;-86
2023/10/20 12:30:32;;;;;;;1999.90;999.90;;;15.80;87.10;;;;;;5053303;28;20021;-87
2023/10/20 12:32:59;;;;;;;1999.90;999.90;;;15.60;89.20;;;;;;5051285;28;20052;-85
2023/10/20 12:35:25;;;;;;;1999.90;999.90;;;15.60;90.10;;;;;;5049293;28;20032;-86
2023/10/20 12:37:51;;;;;;;1999.90;999.90;;;15.60;88.20;;;;;;5051338;28;20069;-87